sensor_id;sensor_type;location;lat;lon;timestamp;P1;durP1;ratioP1;P2;durP2;ratioP2
19219;SDS011;9744;49.364;7.484;2022-11-13T00:01:41;4.88;;;4.00;;
19219;SDS011;9744;49.364;7.484;2022-11-13T00:04:27;4.05;;;3.65;;
19219;SDS011;9744;49.364;7.484;2022-11-13T00:07:13;3.88;;;3.42;;
19219;SDS011;9744;49.364;7.484;2022-11-13T00:10:01;5.03;;;4.05;;
19219;SDS011;9744;49.364;7.484;2022-11-13T00:12:47;94.35;;;6.38;;
19219;SDS011;9744;49.364;7.484;2022-11-13T00:15:34;4.22;;;3.83;;
19219;SDS011;9744;49.364;7.484;2022-11-13T00:18:21;31.17;;;4.18;;
19219;SDS011;9744;49.364;7.484;2022-11-13T00:21:08;3.85;;;3.25;;
19219;SDS011;9744;49.364;7.484;2022-11-13T00:23:57;3.80;;;3.40;;
19219;SDS011;9744;49.364;7.484;2022-11-13T00:26:46;3.67;;;3.30;;
19219;SDS011;9744;49.364;7.484;2022-11-13T00:29:32;3.90;;;3.50;;
19219;SDS011;9744;49.364;7.484;2022-11-13T00:32:19;16.73;;;3.58;;
19219;SDS011;9744;49.364;7.484;2022-11-13T00:35:05;16.30;;;4.00;;
19219;SDS011;9744;49.364;7.484;2022-11-13T00:37:51;3.65;;;2.88;;
19219;SDS011;9744;49.364;7.484;2022-11-13T00:40:38;4.10;;;3.50;;
19219;SDS011;9744;49.364;7.484;2022-11-13T00:43:26;3.80;;;3.05;;
19219;SDS011;9744;49.364;7.484;2022-11-13T00:46:12;4.93;;;3.90;;
19219;SDS011;9744;49.364;7.484;2022-11-13T00:48:58;4.93;;;3.83;;
19219;SDS011;9744;49.364;7.484;2022-11-13T00:51:43;4.10;;;3.70;;
19219;SDS011;9744;49.364;7.484;2022-11-13T00:54:30;4.63;;;3.60;;
19219;SDS011;9744;49.364;7.484;2022-11-13T00:57:16;18.95;;;4.07;;
19219;SDS011;9744;49.364;7.484;2022-11-13T01:00:05;4.28;;;3.60;;
19219;SDS011;9744;49.364;7.484;2022-11-13T01:02:51;5.40;;;3.45;;
19219;SDS011;9744;49.364;7.484;2022-11-13T01:05:38;28.27;;;4.90;;
19219;SDS011;9744;49.364;7.484;2022-11-13T01:08:24;6.97;;;3.72;;
19219;SDS011;9744;49.364;7.484;2022-11-13T01:11:11;4.13;;;3.72;;
19219;SDS011;9744;49.364;7.484;2022-11-13T01:13:59;4.03;;;3.20;;
19219;SDS011;9744;49.364;7.484;2022-11-13T01:16:46;4.65;;;4.03;;
19219;SDS011;9744;49.364;7.484;2022-11-13T01:19:32;97.20;;;5.57;;
19219;SDS011;9744;49.364;7.484;2022-11-13T01:22:17;3.50;;;3.00;;
19219;SDS011;9744;49.364;7.484;2022-11-13T01:25:03;6.47;;;3.72;;
19219;SDS011;9744;49.364;7.484;2022-11-13T01:27:49;66.32;;;4.40;;
19219;SDS011;9744;49.364;7.484;2022-11-13T01:30:35;4.53;;;3.20;;
19219;SDS011;9744;49.364;7.484;2022-11-13T01:33:24;5.32;;;3.63;;
19219;SDS011;9744;49.364;7.484;2022-11-13T01:36:11;80.07;;;6.15;;
19219;SDS011;9744;49.364;7.484;2022-11-13T01:41:50;51.30;;;4.85;;
19219;SDS011;9744;49.364;7.484;2022-11-13T01:44:46;6.40;;;4.57;;
19219;SDS011;9744;49.364;7.484;2022-11-13T01:47:33;48.47;;;5.65;;
19219;SDS011;9744;49.364;7.484;2022-11-13T01:50:20;14.07;;;4.90;;
19219;SDS011;9744;49.364;7.484;2022-11-13T01:53:06;9.32;;;5.05;;
19219;SDS011;9744;49.364;7.484;2022-11-13T01:55:52;7.85;;;5.10;;
19219;SDS011;9744;49.364;7.484;2022-11-13T01:58:38;7.72;;;5.10;;
19219;SDS011;9744;49.364;7.484;2022-11-13T02:01:27;6.68;;;4.38;;
19219;SDS011;9744;49.364;7.484;2022-11-13T02:04:13;7.50;;;4.88;;
19219;SDS011;9744;49.364;7.484;2022-11-13T02:07:01;6.40;;;4.18;;
19219;SDS011;9744;49.364;7.484;2022-11-13T02:09:50;6.72;;;4.18;;
19219;SDS011;9744;49.364;7.484;2022-11-13T02:12:39;12.10;;;4.70;;
19219;SDS011;9744;49.364;7.484;2022-11-13T02:15:26;8.00;;;5.20;;
19219;SDS011;9744;49.364;7.484;2022-11-13T02:18:15;7.63;;;4.82;;
19219;SDS011;9744;49.364;7.484;2022-11-13T02:21:05;6.57;;;4.75;;
19219;SDS011;9744;49.364;7.484;2022-11-13T02:24:08;6.43;;;4.22;;
19219;SDS011;9744;49.364;7.484;2022-11-13T02:27:03;8.48;;;4.80;;
19219;SDS011;9744;49.364;7.484;2022-11-13T02:29:52;6.07;;;4.15;;
19219;SDS011;9744;49.364;7.484;2022-11-13T02:32:41;21.77;;;4.15;;
19219;SDS011;9744;49.364;7.484;2022-11-13T02:35:28;8.15;;;4.00;;
19219;SDS011;9744;49.364;7.484;2022-11-13T02:38:16;14.85;;;4.43;;
19219;SDS011;9744;49.364;7.484;2022-11-13T02:41:04;11.05;;;3.70;;
19219;SDS011;9744;49.364;7.484;2022-11-13T02:43:51;7.28;;;4.15;;
19219;SDS011;9744;49.364;7.484;2022-11-13T02:46:37;10.88;;;4.10;;
19219;SDS011;9744;49.364;7.484;2022-11-13T02:49:23;16.73;;;4.35;;
19219;SDS011;9744;49.364;7.484;2022-11-13T02:52:08;44.83;;;5.32;;
19219;SDS011;9744;49.364;7.484;2022-11-13T02:54:54;17.05;;;4.65;;
19219;SDS011;9744;49.364;7.484;2022-11-13T02:57:41;71.35;;;6.22;;
19219;SDS011;9744;49.364;7.484;2022-11-13T03:00:27;17.50;;;4.60;;
19219;SDS011;9744;49.364;7.484;2022-11-13T03:03:12;22.13;;;4.93;;
19219;SDS011;9744;49.364;7.484;2022-11-13T03:05:58;5.55;;;3.90;;
19219;SDS011;9744;49.364;7.484;2022-11-13T03:08:44;5.38;;;4.20;;
19219;SDS011;9744;49.364;7.484;2022-11-13T03:11:30;13.68;;;4.93;;
19219;SDS011;9744;49.364;7.484;2022-11-13T03:14:17;5.95;;;4.07;;
19219;SDS011;9744;49.364;7.484;2022-11-13T03:17:05;5.40;;;4.28;;
19219;SDS011;9744;49.364;7.484;2022-11-13T03:19:51;5.50;;;4.55;;
19219;SDS011;9744;49.364;7.484;2022-11-13T03:22:36;10.85;;;4.50;;
19219;SDS011;9744;49.364;7.484;2022-11-13T03:25:22;6.95;;;4.10;;
19219;SDS011;9744;49.364;7.484;2022-11-13T03:28:08;6.57;;;4.45;;
19219;SDS011;9744;49.364;7.484;2022-11-13T03:30:54;12.52;;;5.30;;
19219;SDS011;9744;49.364;7.484;2022-11-13T03:33:40;6.50;;;4.65;;
19219;SDS011;9744;49.364;7.484;2022-11-13T03:36:26;7.38;;;5.03;;
19219;SDS011;9744;49.364;7.484;2022-11-13T03:39:12;8.27;;;5.72;;
19219;SDS011;9744;49.364;7.484;2022-11-13T03:41:58;7.65;;;5.07;;
19219;SDS011;9744;49.364;7.484;2022-11-13T03:44:44;7.68;;;4.93;;
19219;SDS011;9744;49.364;7.484;2022-11-13T03:47:31;6.63;;;4.68;;
19219;SDS011;9744;49.364;7.484;2022-11-13T03:50:16;6.88;;;4.78;;
19219;SDS011;9744;49.364;7.484;2022-11-13T03:53:02;5.40;;;4.28;;
19219;SDS011;9744;49.364;7.484;2022-11-13T03:55:48;5.90;;;4.20;;
19219;SDS011;9744;49.364;7.484;2022-11-13T03:58:34;6.30;;;4.65;;
19219;SDS011;9744;49.364;7.484;2022-11-13T04:01:20;5.78;;;4.45;;
19219;SDS011;9744;49.364;7.484;2022-11-13T04:04:07;6.53;;;4.70;;
19219;SDS011;9744;49.364;7.484;2022-11-13T04:06:53;5.63;;;4.45;;
19219;SDS011;9744;49.364;7.484;2022-11-13T04:09:39;6.90;;;4.75;;
19219;SDS011;9744;49.364;7.484;2022-11-13T04:12:25;7.05;;;4.95;;
19219;SDS011;9744;49.364;7.484;2022-11-13T04:15:11;5.82;;;4.47;;
19219;SDS011;9744;49.364;7.484;2022-11-13T04:17:56;7.43;;;4.85;;
19219;SDS011;9744;49.364;7.484;2022-11-13T04:20:44;6.88;;;4.85;;
19219;SDS011;9744;49.364;7.484;2022-11-13T04:23:29;7.30;;;4.68;;
19219;SDS011;9744;49.364;7.484;2022-11-13T04:26:15;5.00;;;4.20;;
19219;SDS011;9744;49.364;7.484;2022-11-13T04:29:01;6.07;;;4.70;;
19219;SDS011;9744;49.364;7.484;2022-11-13T04:31:46;5.78;;;4.45;;
19219;SDS011;9744;49.364;7.484;2022-11-13T04:34:32;7.15;;;5.07;;
19219;SDS011;9744;49.364;7.484;2022-11-13T04:37:19;7.57;;;4.90;;
19219;SDS011;9744;49.364;7.484;2022-11-13T04:40:05;6.18;;;4.60;;
19219;SDS011;9744;49.364;7.484;2022-11-13T04:42:52;5.63;;;4.30;;
19219;SDS011;9744;49.364;7.484;2022-11-13T04:45:37;6.45;;;4.15;;
19219;SDS011;9744;49.364;7.484;2022-11-13T04:48:23;7.38;;;4.65;;
19219;SDS011;9744;49.364;7.484;2022-11-13T04:51:09;6.30;;;4.60;;
19219;SDS011;9744;49.364;7.484;2022-11-13T04:53:56;5.80;;;4.30;;
19219;SDS011;9744;49.364;7.484;2022-11-13T04:56:41;6.75;;;5.00;;
19219;SDS011;9744;49.364;7.484;2022-11-13T04:59:27;5.95;;;4.68;;
19219;SDS011;9744;49.364;7.484;2022-11-13T05:02:13;7.38;;;5.00;;
19219;SDS011;9744;49.364;7.484;2022-11-13T05:04:58;7.25;;;5.55;;
19219;SDS011;9744;49.364;7.484;2022-11-13T05:07:45;8.52;;;5.30;;
19219;SDS011;9744;49.364;7.484;2022-11-13T05:10:32;8.43;;;5.20;;
19219;SDS011;9744;49.364;7.484;2022-11-13T05:13:18;12.27;;;6.40;;
19219;SDS011;9744;49.364;7.484;2022-11-13T05:16:05;8.50;;;5.40;;
19219;SDS011;9744;49.364;7.484;2022-11-13T05:18:52;7.88;;;5.55;;
19219;SDS011;9744;49.364;7.484;2022-11-13T05:21:38;6.35;;;4.90;;
19219;SDS011;9744;49.364;7.484;2022-11-13T05:24:24;11.57;;;5.78;;
19219;SDS011;9744;49.364;7.484;2022-11-13T05:27:10;9.70;;;6.20;;
19219;SDS011;9744;49.364;7.484;2022-11-13T05:29:56;7.50;;;4.78;;
19219;SDS011;9744;49.364;7.484;2022-11-13T05:32:42;8.93;;;5.60;;
19219;SDS011;9744;49.364;7.484;2022-11-13T05:35:28;6.80;;;5.13;;
19219;SDS011;9744;49.364;7.484;2022-11-13T05:38:14;6.10;;;4.68;;
19219;SDS011;9744;49.364;7.484;2022-11-13T05:41:00;7.07;;;4.57;;
19219;SDS011;9744;49.364;7.484;2022-11-13T05:43:48;15.55;;;5.20;;
19219;SDS011;9744;49.364;7.484;2022-11-13T05:46:34;7.13;;;5.05;;
19219;SDS011;9744;49.364;7.484;2022-11-13T05:49:20;9.25;;;4.60;;
19219;SDS011;9744;49.364;7.484;2022-11-13T05:52:05;6.80;;;4.88;;
19219;SDS011;9744;49.364;7.484;2022-11-13T05:54:51;6.38;;;4.75;;
19219;SDS011;9744;49.364;7.484;2022-11-13T05:57:37;6.00;;;4.55;;
19219;SDS011;9744;49.364;7.484;2022-11-13T06:00:24;10.55;;;5.00;;
19219;SDS011;9744;49.364;7.484;2022-11-13T06:03:10;7.43;;;4.93;;
19219;SDS011;9744;49.364;7.484;2022-11-13T06:05:55;6.20;;;4.97;;
19219;SDS011;9744;49.364;7.484;2022-11-13T06:08:42;7.55;;;4.90;;
19219;SDS011;9744;49.364;7.484;2022-11-13T06:11:28;10.20;;;5.13;;
19219;SDS011;9744;49.364;7.484;2022-11-13T06:14:14;7.32;;;5.00;;
19219;SDS011;9744;49.364;7.484;2022-11-13T06:17:02;7.90;;;5.25;;
19219;SDS011;9744;49.364;7.484;2022-11-13T06:19:47;10.50;;;6.00;;
19219;SDS011;9744;49.364;7.484;2022-11-13T06:22:33;23.88;;;5.40;;
19219;SDS011;9744;49.364;7.484;2022-11-13T06:25:19;7.82;;;5.15;;
19219;SDS011;9744;49.364;7.484;2022-11-13T06:28:04;7.28;;;5.35;;
19219;SDS011;9744;49.364;7.484;2022-11-13T06:30:50;6.25;;;4.07;;
19219;SDS011;9744;49.364;7.484;2022-11-13T06:33:37;7.70;;;4.90;;
19219;SDS011;9744;49.364;7.484;2022-11-13T06:36:25;7.80;;;5.05;;
19219;SDS011;9744;49.364;7.484;2022-11-13T06:39:12;8.00;;;5.18;;
19219;SDS011;9744;49.364;7.484;2022-11-13T06:41:57;8.63;;;6.10;;
19219;SDS011;9744;49.364;7.484;2022-11-13T06:44:43;9.02;;;6.05;;
19219;SDS011;9744;49.364;7.484;2022-11-13T06:47:29;8.38;;;5.68;;
19219;SDS011;9744;49.364;7.484;2022-11-13T06:50:16;9.93;;;6.80;;
19219;SDS011;9744;49.364;7.484;2022-11-13T06:53:02;10.05;;;6.60;;
19219;SDS011;9744;49.364;7.484;2022-11-13T06:55:48;9.88;;;6.32;;
19219;SDS011;9744;49.364;7.484;2022-11-13T06:58:34;9.52;;;6.32;;
19219;SDS011;9744;49.364;7.484;2022-11-13T07:01:21;10.20;;;6.97;;
19219;SDS011;9744;49.364;7.484;2022-11-13T07:04:08;10.32;;;6.03;;
19219;SDS011;9744;49.364;7.484;2022-11-13T07:06:59;13.20;;;6.43;;
19219;SDS011;9744;49.364;7.484;2022-11-13T07:09:46;9.43;;;6.20;;
19219;SDS011;9744;49.364;7.484;2022-11-13T07:12:33;8.25;;;6.18;;
19219;SDS011;9744;49.364;7.484;2022-11-13T07:15:18;10.38;;;6.50;;
19219;SDS011;9744;49.364;7.484;2022-11-13T07:18:04;12.68;;;7.30;;
19219;SDS011;9744;49.364;7.484;2022-11-13T07:20:51;15.52;;;7.43;;
19219;SDS011;9744;49.364;7.484;2022-11-13T07:23:38;16.00;;;7.88;;
19219;SDS011;9744;49.364;7.484;2022-11-13T07:26:26;11.45;;;7.03;;
19219;SDS011;9744;49.364;7.484;2022-11-13T07:29:11;9.35;;;6.53;;
19219;SDS011;9744;49.364;7.484;2022-11-13T07:31:58;10.82;;;7.30;;
19219;SDS011;9744;49.364;7.484;2022-11-13T07:34:45;11.65;;;7.28;;
19219;SDS011;9744;49.364;7.484;2022-11-13T07:37:31;10.50;;;6.15;;
19219;SDS011;9744;49.364;7.484;2022-11-13T07:40:18;8.57;;;6.05;;
19219;SDS011;9744;49.364;7.484;2022-11-13T07:43:04;8.80;;;6.07;;
19219;SDS011;9744;49.364;7.484;2022-11-13T07:45:49;13.77;;;8.23;;
19219;SDS011;9744;49.364;7.484;2022-11-13T07:48:37;9.55;;;6.70;;
19219;SDS011;9744;49.364;7.484;2022-11-13T07:51:23;11.68;;;7.00;;
19219;SDS011;9744;49.364;7.484;2022-11-13T07:54:09;11.05;;;7.35;;
19219;SDS011;9744;49.364;7.484;2022-11-13T07:56:56;10.15;;;6.32;;
19219;SDS011;9744;49.364;7.484;2022-11-13T07:59:41;11.10;;;7.25;;
19219;SDS011;9744;49.364;7.484;2022-11-13T08:02:27;11.70;;;7.35;;
19219;SDS011;9744;49.364;7.484;2022-11-13T08:05:13;11.43;;;7.55;;
19219;SDS011;9744;49.364;7.484;2022-11-13T08:07:59;14.10;;;8.43;;
19219;SDS011;9744;49.364;7.484;2022-11-13T08:10:45;15.25;;;8.88;;
19219;SDS011;9744;49.364;7.484;2022-11-13T08:13:32;13.13;;;8.52;;
19219;SDS011;9744;49.364;7.484;2022-11-13T08:16:19;13.40;;;8.10;;
19219;SDS011;9744;49.364;7.484;2022-11-13T08:19:06;15.32;;;8.75;;
19219;SDS011;9744;49.364;7.484;2022-11-13T08:21:51;14.20;;;8.23;;
19219;SDS011;9744;49.364;7.484;2022-11-13T08:24:37;11.45;;;8.32;;
19219;SDS011;9744;49.364;7.484;2022-11-13T08:27:23;13.40;;;8.50;;
19219;SDS011;9744;49.364;7.484;2022-11-13T08:30:11;11.93;;;8.23;;
19219;SDS011;9744;49.364;7.484;2022-11-13T08:32:57;12.20;;;8.32;;
19219;SDS011;9744;49.364;7.484;2022-11-13T08:35:50;19.45;;;12.07;;
19219;SDS011;9744;49.364;7.484;2022-11-13T08:38:37;14.60;;;9.50;;
19219;SDS011;9744;49.364;7.484;2022-11-13T08:41:23;15.88;;;10.02;;
19219;SDS011;9744;49.364;7.484;2022-11-13T08:44:09;14.93;;;8.70;;
19219;SDS011;9744;49.364;7.484;2022-11-13T08:46:58;13.60;;;8.73;;
19219;SDS011;9744;49.364;7.484;2022-11-13T08:49:44;14.40;;;8.98;;
19219;SDS011;9744;49.364;7.484;2022-11-13T08:52:30;11.88;;;8.75;;
19219;SDS011;9744;49.364;7.484;2022-11-13T08:55:16;13.52;;;8.60;;
19219;SDS011;9744;49.364;7.484;2022-11-13T08:58:02;11.85;;;8.93;;
19219;SDS011;9744;49.364;7.484;2022-11-13T09:00:50;13.48;;;9.10;;
19219;SDS011;9744;49.364;7.484;2022-11-13T09:03:37;20.67;;;11.73;;
19219;SDS011;9744;49.364;7.484;2022-11-13T09:06:23;14.85;;;9.77;;
19219;SDS011;9744;49.364;7.484;2022-11-13T09:09:08;13.23;;;8.98;;
19219;SDS011;9744;49.364;7.484;2022-11-13T09:11:54;12.43;;;9.27;;
19219;SDS011;9744;49.364;7.484;2022-11-13T09:14:40;14.63;;;9.90;;
19219;SDS011;9744;49.364;7.484;2022-11-13T09:17:26;13.48;;;9.32;;
19219;SDS011;9744;49.364;7.484;2022-11-13T09:20:13;12.55;;;9.02;;
19219;SDS011;9744;49.364;7.484;2022-11-13T09:23:00;15.98;;;10.13;;
19219;SDS011;9744;49.364;7.484;2022-11-13T09:25:48;16.23;;;10.48;;
19219;SDS011;9744;49.364;7.484;2022-11-13T09:28:35;16.48;;;9.43;;
19219;SDS011;9744;49.364;7.484;2022-11-13T09:31:21;14.57;;;9.45;;
19219;SDS011;9744;49.364;7.484;2022-11-13T09:34:06;12.98;;;9.15;;
19219;SDS011;9744;49.364;7.484;2022-11-13T09:36:54;13.80;;;9.20;;
19219;SDS011;9744;49.364;7.484;2022-11-13T09:39:40;12.85;;;9.05;;
19219;SDS011;9744;49.364;7.484;2022-11-13T09:42:25;11.07;;;8.18;;
19219;SDS011;9744;49.364;7.484;2022-11-13T09:45:13;11.45;;;8.20;;
19219;SDS011;9744;49.364;7.484;2022-11-13T09:48:05;18.73;;;11.75;;
19219;SDS011;9744;49.364;7.484;2022-11-13T09:51:02;13.70;;;9.18;;
19219;SDS011;9744;49.364;7.484;2022-11-13T09:53:56;10.43;;;8.10;;
19219;SDS011;9744;49.364;7.484;2022-11-13T09:56:50;12.32;;;8.57;;
19219;SDS011;9744;49.364;7.484;2022-11-13T09:59:42;11.60;;;8.30;;
19219;SDS011;9744;49.364;7.484;2022-11-13T10:02:44;13.35;;;8.00;;
19219;SDS011;9744;49.364;7.484;2022-11-13T10:05:38;10.77;;;7.65;;
19219;SDS011;9744;49.364;7.484;2022-11-13T10:08:34;10.65;;;7.53;;
19219;SDS011;9744;49.364;7.484;2022-11-13T10:11:30;17.25;;;9.50;;
19219;SDS011;9744;49.364;7.484;2022-11-13T10:14:23;11.20;;;7.95;;
19219;SDS011;9744;49.364;7.484;2022-11-13T10:17:13;12.45;;;8.30;;
19219;SDS011;9744;49.364;7.484;2022-11-13T10:20:04;13.82;;;8.52;;
19219;SDS011;9744;49.364;7.484;2022-11-13T10:22:59;14.80;;;9.55;;
19219;SDS011;9744;49.364;7.484;2022-11-13T10:25:52;12.13;;;8.07;;
19219;SDS011;9744;49.364;7.484;2022-11-13T10:28:42;10.68;;;7.32;;
19219;SDS011;9744;49.364;7.484;2022-11-13T10:31:28;12.82;;;7.72;;
19219;SDS011;9744;49.364;7.484;2022-11-13T10:34:24;12.27;;;7.97;;
19219;SDS011;9744;49.364;7.484;2022-11-13T10:37:13;10.00;;;7.15;;
19219;SDS011;9744;49.364;7.484;2022-11-13T10:40:08;9.95;;;7.32;;
19219;SDS011;9744;49.364;7.484;2022-11-13T10:43:03;12.90;;;6.78;;
19219;SDS011;9744;49.364;7.484;2022-11-13T10:48:56;8.65;;;6.88;;
19219;SDS011;9744;49.364;7.484;2022-11-13T10:51:55;38.88;;;24.83;;
19219;SDS011;9744;49.364;7.484;2022-11-13T10:55:03;12.27;;;6.68;;
19219;SDS011;9744;49.364;7.484;2022-11-13T10:58:03;9.57;;;7.22;;
19219;SDS011;9744;49.364;7.484;2022-11-13T11:00:58;10.68;;;7.80;;
19219;SDS011;9744;49.364;7.484;2022-11-13T11:03:58;22.95;;;15.75;;
19219;SDS011;9744;49.364;7.484;2022-11-13T11:06:54;11.35;;;8.48;;
19219;SDS011;9744;49.364;7.484;2022-11-13T11:13:19;9.40;;;5.85;;
19219;SDS011;9744;49.364;7.484;2022-11-13T11:16:15;8.38;;;5.93;;
19219;SDS011;9744;49.364;7.484;2022-11-13T11:19:15;9.52;;;6.10;;
19219;SDS011;9744;49.364;7.484;2022-11-13T11:22:06;8.18;;;5.97;;
19219;SDS011;9744;49.364;7.484;2022-11-13T11:25:00;8.50;;;6.60;;
19219;SDS011;9744;49.364;7.484;2022-11-13T11:27:57;9.45;;;5.85;;
19219;SDS011;9744;49.364;7.484;2022-11-13T11:30:54;7.32;;;5.55;;
19219;SDS011;9744;49.364;7.484;2022-11-13T11:33:51;7.75;;;5.70;;
19219;SDS011;9744;49.364;7.484;2022-11-13T11:36:45;8.63;;;5.88;;
19219;SDS011;9744;49.364;7.484;2022-11-13T11:39:39;7.60;;;5.90;;
19219;SDS011;9744;49.364;7.484;2022-11-13T11:42:33;9.77;;;6.05;;
19219;SDS011;9744;49.364;7.484;2022-11-13T11:45:24;10.15;;;7.03;;
19219;SDS011;9744;49.364;7.484;2022-11-13T11:48:13;11.02;;;6.22;;
19219;SDS011;9744;49.364;7.484;2022-11-13T11:51:10;9.38;;;7.07;;
19219;SDS011;9744;49.364;7.484;2022-11-13T11:54:07;11.38;;;6.72;;
19219;SDS011;9744;49.364;7.484;2022-11-13T11:57:09;9.20;;;5.65;;
19219;SDS011;9744;49.364;7.484;2022-11-13T12:00:03;7.32;;;5.88;;
19219;SDS011;9744;49.364;7.484;2022-11-13T12:06:15;26.13;;;11.95;;
19219;SDS011;9744;49.364;7.484;2022-11-13T12:09:07;19.48;;;9.75;;
19219;SDS011;9744;49.364;7.484;2022-11-13T12:12:02;17.60;;;9.93;;
19219;SDS011;9744;49.364;7.484;2022-11-13T12:14:57;13.68;;;7.82;;
19219;SDS011;9744;49.364;7.484;2022-11-13T12:17:54;10.60;;;6.63;;
19219;SDS011;9744;49.364;7.484;2022-11-13T12:20:49;10.30;;;6.50;;
19219;SDS011;9744;49.364;7.484;2022-11-13T12:23:45;10.73;;;5.88;;
19219;SDS011;9744;49.364;7.484;2022-11-13T12:26:42;8.85;;;5.68;;
19219;SDS011;9744;49.364;7.484;2022-11-13T12:29:37;12.45;;;6.47;;
19219;SDS011;9744;49.364;7.484;2022-11-13T12:32:39;10.95;;;6.15;;
19219;SDS011;9744;49.364;7.484;2022-11-13T12:35:37;10.32;;;6.53;;
19219;SDS011;9744;49.364;7.484;2022-11-13T12:38:33;5.80;;;4.43;;
19219;SDS011;9744;49.364;7.484;2022-11-13T12:41:29;6.22;;;4.95;;
19219;SDS011;9744;49.364;7.484;2022-11-13T12:44:22;5.90;;;4.10;;
19219;SDS011;9744;49.364;7.484;2022-11-13T12:47:10;6.95;;;4.70;;
19219;SDS011;9744;49.364;7.484;2022-11-13T12:49:58;10.30;;;7.32;;
19219;SDS011;9744;49.364;7.484;2022-11-13T12:52:44;7.70;;;4.13;;
19219;SDS011;9744;49.364;7.484;2022-11-13T12:55:41;4.63;;;3.25;;
19219;SDS011;9744;49.364;7.484;2022-11-13T12:58:50;9.15;;;5.00;;
19219;SDS011;9744;49.364;7.484;2022-11-13T13:01:41;7.57;;;4.80;;
19219;SDS011;9744;49.364;7.484;2022-11-13T13:04:36;4.13;;;2.60;;
19219;SDS011;9744;49.364;7.484;2022-11-13T13:07:34;6.40;;;4.43;;
19219;SDS011;9744;49.364;7.484;2022-11-13T13:10:51;5.78;;;3.17;;
19219;SDS011;9744;49.364;7.484;2022-11-13T13:13:46;3.78;;;2.10;;
19219;SDS011;9744;49.364;7.484;2022-11-13T13:16:37;5.30;;;2.88;;
19219;SDS011;9744;49.364;7.484;2022-11-13T13:19:24;3.97;;;2.90;;
19219;SDS011;9744;49.364;7.484;2022-11-13T13:22:22;6.35;;;3.10;;
19219;SDS011;9744;49.364;7.484;2022-11-13T13:25:22;6.22;;;3.30;;
19219;SDS011;9744;49.364;7.484;2022-11-13T13:28:17;4.63;;;2.05;;
19219;SDS011;9744;49.364;7.484;2022-11-13T13:31:12;3.72;;;2.75;;
19219;SDS011;9744;49.364;7.484;2022-11-13T13:34:22;3.35;;;2.03;;
19219;SDS011;9744;49.364;7.484;2022-11-13T13:37:31;3.40;;;2.05;;
19219;SDS011;9744;49.364;7.484;2022-11-13T13:40:25;3.17;;;2.13;;
19219;SDS011;9744;49.364;7.484;2022-11-13T13:43:22;3.53;;;2.53;;
19219;SDS011;9744;49.364;7.484;2022-11-13T13:46:20;6.18;;;2.55;;
19219;SDS011;9744;49.364;7.484;2022-11-13T13:49:10;4.13;;;2.60;;
19219;SDS011;9744;49.364;7.484;2022-11-13T13:51:59;3.28;;;1.90;;
19219;SDS011;9744;49.364;7.484;2022-11-13T13:54:47;4.60;;;2.85;;
19219;SDS011;9744;49.364;7.484;2022-11-13T13:57:36;3.15;;;2.10;;
19219;SDS011;9744;49.364;7.484;2022-11-13T14:00:25;3.17;;;2.00;;
19219;SDS011;9744;49.364;7.484;2022-11-13T14:03:17;2.40;;;1.92;;
19219;SDS011;9744;49.364;7.484;2022-11-13T14:06:08;3.45;;;1.98;;
19219;SDS011;9744;49.364;7.484;2022-11-13T14:09:08;4.07;;;1.98;;
19219;SDS011;9744;49.364;7.484;2022-11-13T14:11:55;6.63;;;2.80;;
19219;SDS011;9744;49.364;7.484;2022-11-13T14:14:42;4.18;;;2.55;;
19219;SDS011;9744;49.364;7.484;2022-11-13T14:17:28;6.13;;;3.08;;
19219;SDS011;9744;49.364;7.484;2022-11-13T14:20:16;5.75;;;3.88;;
19219;SDS011;9744;49.364;7.484;2022-11-13T14:23:02;7.72;;;5.32;;
19219;SDS011;9744;49.364;7.484;2022-11-13T14:25:48;6.50;;;4.00;;
19219;SDS011;9744;49.364;7.484;2022-11-13T14:28:42;4.82;;;3.28;;
19219;SDS011;9744;49.364;7.484;2022-11-13T14:31:31;5.20;;;3.42;;
19219;SDS011;9744;49.364;7.484;2022-11-13T14:34:20;5.22;;;2.95;;
19219;SDS011;9744;49.364;7.484;2022-11-13T14:37:14;4.80;;;3.58;;
19219;SDS011;9744;49.364;7.484;2022-11-13T14:40:12;5.25;;;3.70;;
19219;SDS011;9744;49.364;7.484;2022-11-13T14:43:06;5.57;;;3.60;;
19219;SDS011;9744;49.364;7.484;2022-11-13T14:46:01;4.65;;;2.58;;
19219;SDS011;9744;49.364;7.484;2022-11-13T14:48:50;5.90;;;3.17;;
19219;SDS011;9744;49.364;7.484;2022-11-13T14:51:39;6.35;;;3.10;;
19219;SDS011;9744;49.364;7.484;2022-11-13T14:54:27;8.77;;;5.20;;
19219;SDS011;9744;49.364;7.484;2022-11-13T14:57:15;5.20;;;3.85;;
19219;SDS011;9744;49.364;7.484;2022-11-13T15:00:08;7.43;;;3.00;;
19219;SDS011;9744;49.364;7.484;2022-11-13T15:02:56;10.45;;;5.80;;
19219;SDS011;9744;49.364;7.484;2022-11-13T15:05:48;9.38;;;5.00;;
19219;SDS011;9744;49.364;7.484;2022-11-13T15:08:34;6.22;;;3.80;;
19219;SDS011;9744;49.364;7.484;2022-11-13T15:11:23;5.43;;;3.10;;
19219;SDS011;9744;49.364;7.484;2022-11-13T15:14:10;6.93;;;4.53;;
19219;SDS011;9744;49.364;7.484;2022-11-13T15:16:57;6.85;;;3.75;;
19219;SDS011;9744;49.364;7.484;2022-11-13T15:19:43;6.47;;;4.43;;
19219;SDS011;9744;49.364;7.484;2022-11-13T15:22:31;17.83;;;11.00;;
19219;SDS011;9744;49.364;7.484;2022-11-13T15:25:18;20.42;;;13.43;;
19219;SDS011;9744;49.364;7.484;2022-11-13T15:28:06;11.30;;;6.22;;
19219;SDS011;9744;49.364;7.484;2022-11-13T15:30:52;14.85;;;9.35;;
19219;SDS011;9744;49.364;7.484;2022-11-13T15:33:38;14.77;;;9.57;;
19219;SDS011;9744;49.364;7.484;2022-11-13T15:36:24;9.50;;;5.75;;
19219;SDS011;9744;49.364;7.484;2022-11-13T15:39:10;9.95;;;5.43;;
19219;SDS011;9744;49.364;7.484;2022-11-13T15:41:56;13.93;;;7.55;;
19219;SDS011;9744;49.364;7.484;2022-11-13T15:44:43;13.18;;;7.30;;
19219;SDS011;9744;49.364;7.484;2022-11-13T15:47:29;12.57;;;7.90;;
19219;SDS011;9744;49.364;7.484;2022-11-13T15:50:17;12.32;;;7.85;;
19219;SDS011;9744;49.364;7.484;2022-11-13T15:56:15;13.60;;;8.02;;
19219;SDS011;9744;49.364;7.484;2022-11-13T15:59:02;10.80;;;6.85;;
19219;SDS011;9744;49.364;7.484;2022-11-13T16:01:49;10.73;;;6.22;;
19219;SDS011;9744;49.364;7.484;2022-11-13T16:04:36;11.00;;;5.78;;
19219;SDS011;9744;49.364;7.484;2022-11-13T16:07:24;9.82;;;5.40;;
19219;SDS011;9744;49.364;7.484;2022-11-13T16:10:12;13.27;;;7.03;;
19219;SDS011;9744;49.364;7.484;2022-11-13T16:12:59;15.57;;;6.95;;
19219;SDS011;9744;49.364;7.484;2022-11-13T16:15:46;16.48;;;8.30;;
19219;SDS011;9744;49.364;7.484;2022-11-13T16:18:34;13.18;;;7.18;;
19219;SDS011;9744;49.364;7.484;2022-11-13T16:21:20;12.50;;;6.85;;
19219;SDS011;9744;49.364;7.484;2022-11-13T16:24:06;9.27;;;6.05;;
19219;SDS011;9744;49.364;7.484;2022-11-13T16:26:53;9.02;;;6.20;;
19219;SDS011;9744;49.364;7.484;2022-11-13T16:29:41;7.53;;;5.45;;
19219;SDS011;9744;49.364;7.484;2022-11-13T16:32:27;7.40;;;5.32;;
19219;SDS011;9744;49.364;7.484;2022-11-13T16:35:20;7.55;;;4.97;;
19219;SDS011;9744;49.364;7.484;2022-11-13T16:38:08;7.85;;;4.78;;
19219;SDS011;9744;49.364;7.484;2022-11-13T16:40:56;6.85;;;4.78;;
19219;SDS011;9744;49.364;7.484;2022-11-13T16:43:42;7.72;;;4.70;;
19219;SDS011;9744;49.364;7.484;2022-11-13T16:46:28;7.65;;;4.60;;
19219;SDS011;9744;49.364;7.484;2022-11-13T16:49:17;6.00;;;4.57;;
19219;SDS011;9744;49.364;7.484;2022-11-13T16:52:04;8.95;;;6.07;;
19219;SDS011;9744;49.364;7.484;2022-11-13T16:54:50;9.35;;;5.78;;
19219;SDS011;9744;49.364;7.484;2022-11-13T16:57:36;7.45;;;5.30;;
19219;SDS011;9744;49.364;7.484;2022-11-13T17:00:23;7.50;;;5.47;;
19219;SDS011;9744;49.364;7.484;2022-11-13T17:03:09;7.22;;;5.13;;
19219;SDS011;9744;49.364;7.484;2022-11-13T17:09:09;6.40;;;4.60;;
19219;SDS011;9744;49.364;7.484;2022-11-13T17:11:55;7.25;;;4.78;;
19219;SDS011;9744;49.364;7.484;2022-11-13T17:14:41;8.85;;;5.00;;
19219;SDS011;9744;49.364;7.484;2022-11-13T17:17:32;7.18;;;4.72;;
19219;SDS011;9744;49.364;7.484;2022-11-13T17:20:18;6.97;;;4.70;;
19219;SDS011;9744;49.364;7.484;2022-11-13T17:23:03;7.60;;;4.32;;
19219;SDS011;9744;49.364;7.484;2022-11-13T17:25:51;6.70;;;4.00;;